sensor_id;sensor_type;location;lat;lon;timestamp;temperature;humidity
13328;DHT22;6733;51.044;3.746;2023-03-19T00:02:02;11.70;99.90
13328;DHT22;6733;51.044;3.746;2023-03-19T00:04:28;11.60;99.90
13328;DHT22;6733;51.044;3.746;2023-03-19T00:06:55;11.50;99.90
13328;DHT22;6733;51.044;3.746;2023-03-19T00:09:21;11.50;99.90
13328;DHT22;6733;51.044;3.746;2023-03-19T00:11:48;11.40;99.90
13328;DHT22;6733;51.044;3.746;2023-03-19T00:14:14;11.40;99.90
13328;DHT22;6733;51.044;3.746;2023-03-19T00:16:41;11.40;99.90
13328;DHT22;6733;51.044;3.746;2023-03-19T00:19:07;11.30;99.90
13328;DHT22;6733;51.044;3.746;2023-03-19T00:21:33;11.30;99.90
13328;DHT22;6733;51.044;3.746;2023-03-19T00:24:00;11.30;99.90
13328;DHT22;6733;51.044;3.746;2023-03-19T00:26:28;11.20;99.90
13328;DHT22;6733;51.044;3.746;2023-03-19T00:28:55;11.20;99.90
13328;DHT22;6733;51.044;3.746;2023-03-19T00:31:22;11.10;99.90
13328;DHT22;6733;51.044;3.746;2023-03-19T00:33:48;11.10;99.90
13328;DHT22;6733;51.044;3.746;2023-03-19T00:36:15;11.10;99.90
13328;DHT22;6733;51.044;3.746;2023-03-19T00:38:43;11.00;99.90
13328;DHT22;6733;51.044;3.746;2023-03-19T00:41:10;11.00;99.90
13328;DHT22;6733;51.044;3.746;2023-03-19T00:43:36;11.00;99.90
13328;DHT22;6733;51.044;3.746;2023-03-19T00:46:03;11.00;99.90
13328;DHT22;6733;51.044;3.746;2023-03-19T00:48:29;10.90;99.90
13328;DHT22;6733;51.044;3.746;2023-03-19T00:51:08;10.90;99.90
13328;DHT22;6733;51.044;3.746;2023-03-19T00:53:38;10.90;99.90
13328;DHT22;6733;51.044;3.746;2023-03-19T00:56:05;10.90;99.90
13328;DHT22;6733;51.044;3.746;2023-03-19T00:58:33;10.90;99.90
13328;DHT22;6733;51.044;3.746;2023-03-19T01:01:00;10.90;99.90
13328;DHT22;6733;51.044;3.746;2023-03-19T01:03:27;10.80;99.90
13328;DHT22;6733;51.044;3.746;2023-03-19T01:05:53;10.80;99.90
13328;DHT22;6733;51.044;3.746;2023-03-19T01:08:19;10.80;99.90
13328;DHT22;6733;51.044;3.746;2023-03-19T01:10:45;10.80;99.90
13328;DHT22;6733;51.044;3.746;2023-03-19T01:13:12;10.70;99.90
13328;DHT22;6733;51.044;3.746;2023-03-19T01:15:40;10.70;99.90
13328;DHT22;6733;51.044;3.746;2023-03-19T01:18:07;10.60;99.90
13328;DHT22;6733;51.044;3.746;2023-03-19T01:20:34;10.60;99.90
13328;DHT22;6733;51.044;3.746;2023-03-19T01:23:01;10.50;99.90
13328;DHT22;6733;51.044;3.746;2023-03-19T01:25:27;10.60;99.90
13328;DHT22;6733;51.044;3.746;2023-03-19T01:27:53;10.50;99.90
13328;DHT22;6733;51.044;3.746;2023-03-19T01:30:19;10.60;99.90
13328;DHT22;6733;51.044;3.746;2023-03-19T01:32:46;10.50;99.90
13328;DHT22;6733;51.044;3.746;2023-03-19T01:35:12;10.50;99.90
13328;DHT22;6733;51.044;3.746;2023-03-19T01:37:39;10.50;99.90
13328;DHT22;6733;51.044;3.746;2023-03-19T01:40:06;10.50;99.90
13328;DHT22;6733;51.044;3.746;2023-03-19T01:42:33;10.50;99.90
13328;DHT22;6733;51.044;3.746;2023-03-19T01:45:01;10.50;99.90
13328;DHT22;6733;51.044;3.746;2023-03-19T01:47:34;10.50;99.90
13328;DHT22;6733;51.044;3.746;2023-03-19T01:50:02;10.40;99.90
13328;DHT22;6733;51.044;3.746;2023-03-19T01:52:31;10.50;99.90
13328;DHT22;6733;51.044;3.746;2023-03-19T01:55:00;10.40;99.90
13328;DHT22;6733;51.044;3.746;2023-03-19T01:57:29;10.30;99.90
13328;DHT22;6733;51.044;3.746;2023-03-19T02:00:00;10.30;99.90
13328;DHT22;6733;51.044;3.746;2023-03-19T02:02:31;10.30;99.90
13328;DHT22;6733;51.044;3.746;2023-03-19T02:05:12;10.20;99.90
13328;DHT22;6733;51.044;3.746;2023-03-19T02:07:44;10.20;99.90
13328;DHT22;6733;51.044;3.746;2023-03-19T02:10:13;10.20;99.90
13328;DHT22;6733;51.044;3.746;2023-03-19T02:12:39;10.20;99.90
13328;DHT22;6733;51.044;3.746;2023-03-19T02:15:06;10.20;99.90
13328;DHT22;6733;51.044;3.746;2023-03-19T02:17:33;10.10;99.90
13328;DHT22;6733;51.044;3.746;2023-03-19T02:22:28;10.10;99.90
13328;DHT22;6733;51.044;3.746;2023-03-19T02:25:05;10.10;99.90
13328;DHT22;6733;51.044;3.746;2023-03-19T02:27:34;10.10;99.90
13328;DHT22;6733;51.044;3.746;2023-03-19T02:30:17;10.10;99.90
13328;DHT22;6733;51.044;3.746;2023-03-19T02:32:43;10.00;99.90
13328;DHT22;6733;51.044;3.746;2023-03-19T02:35:35;10.00;99.90
13328;DHT22;6733;51.044;3.746;2023-03-19T02:38:04;9.90;99.90
13328;DHT22;6733;51.044;3.746;2023-03-19T02:40:35;9.90;99.90
13328;DHT22;6733;51.044;3.746;2023-03-19T02:43:02;9.90;99.90
13328;DHT22;6733;51.044;3.746;2023-03-19T02:45:29;9.90;99.90
13328;DHT22;6733;51.044;3.746;2023-03-19T02:47:56;9.90;99.90
13328;DHT22;6733;51.044;3.746;2023-03-19T02:50:23;9.90;99.90
13328;DHT22;6733;51.044;3.746;2023-03-19T02:52:49;9.90;99.90
13328;DHT22;6733;51.044;3.746;2023-03-19T02:55:16;9.90;99.90
13328;DHT22;6733;51.044;3.746;2023-03-19T02:57:44;9.90;99.90
13328;DHT22;6733;51.044;3.746;2023-03-19T03:00:11;9.90;99.90
13328;DHT22;6733;51.044;3.746;2023-03-19T03:02:39;9.80;99.90
13328;DHT22;6733;51.044;3.746;2023-03-19T03:05:05;9.80;99.90
13328;DHT22;6733;51.044;3.746;2023-03-19T03:07:32;9.80;99.90
13328;DHT22;6733;51.044;3.746;2023-03-19T03:09:58;9.80;99.90
13328;DHT22;6733;51.044;3.746;2023-03-19T03:12:24;9.80;99.90
13328;DHT22;6733;51.044;3.746;2023-03-19T03:14:51;9.80;99.90
13328;DHT22;6733;51.044;3.746;2023-03-19T03:17:17;9.70;99.90
13328;DHT22;6733;51.044;3.746;2023-03-19T03:19:44;9.70;99.90
13328;DHT22;6733;51.044;3.746;2023-03-19T03:22:10;9.70;99.90
13328;DHT22;6733;51.044;3.746;2023-03-19T03:24:36;9.70;99.90
13328;DHT22;6733;51.044;3.746;2023-03-19T03:27:04;9.70;99.90
13328;DHT22;6733;51.044;3.746;2023-03-19T03:29:30;9.70;99.90
13328;DHT22;6733;51.044;3.746;2023-03-19T03:31:57;9.70;99.90
13328;DHT22;6733;51.044;3.746;2023-03-19T03:34:23;9.70;99.90
13328;DHT22;6733;51.044;3.746;2023-03-19T03:36:49;9.60;99.90
13328;DHT22;6733;51.044;3.746;2023-03-19T03:39:16;9.60;99.90
13328;DHT22;6733;51.044;3.746;2023-03-19T03:41:44;9.60;99.90
13328;DHT22;6733;51.044;3.746;2023-03-19T03:44:11;9.60;99.90
13328;DHT22;6733;51.044;3.746;2023-03-19T03:46:37;9.60;99.90
13328;DHT22;6733;51.044;3.746;2023-03-19T03:49:03;9.60;99.90
13328;DHT22;6733;51.044;3.746;2023-03-19T03:51:29;9.60;99.90
13328;DHT22;6733;51.044;3.746;2023-03-19T03:53:56;9.50;99.90
13328;DHT22;6733;51.044;3.746;2023-03-19T03:56:22;9.50;99.90
13328;DHT22;6733;51.044;3.746;2023-03-19T03:58:48;9.50;99.90
13328;DHT22;6733;51.044;3.746;2023-03-19T04:01:14;9.50;99.90
13328;DHT22;6733;51.044;3.746;2023-03-19T04:03:41;9.50;99.90
13328;DHT22;6733;51.044;3.746;2023-03-19T04:06:11;9.50;99.90
13328;DHT22;6733;51.044;3.746;2023-03-19T04:08:39;9.50;99.90
13328;DHT22;6733;51.044;3.746;2023-03-19T04:11:06;9.50;99.90
13328;DHT22;6733;51.044;3.746;2023-03-19T04:13:32;9.50;99.90
13328;DHT22;6733;51.044;3.746;2023-03-19T04:16:05;9.50;99.90
13328;DHT22;6733;51.044;3.746;2023-03-19T04:18:33;9.50;99.90
13328;DHT22;6733;51.044;3.746;2023-03-19T04:20:59;9.50;99.90
13328;DHT22;6733;51.044;3.746;2023-03-19T04:23:25;9.50;99.90
13328;DHT22;6733;51.044;3.746;2023-03-19T04:25:52;9.40;99.90
13328;DHT22;6733;51.044;3.746;2023-03-19T04:28:18;9.40;99.90
13328;DHT22;6733;51.044;3.746;2023-03-19T04:30:44;9.40;99.90
13328;DHT22;6733;51.044;3.746;2023-03-19T04:33:10;9.40;99.90
13328;DHT22;6733;51.044;3.746;2023-03-19T04:35:37;9.40;99.90
13328;DHT22;6733;51.044;3.746;2023-03-19T04:38:03;9.40;99.90
13328;DHT22;6733;51.044;3.746;2023-03-19T04:40:30;9.40;99.90
13328;DHT22;6733;51.044;3.746;2023-03-19T04:42:56;9.40;99.90
13328;DHT22;6733;51.044;3.746;2023-03-19T04:45:22;9.40;99.90
13328;DHT22;6733;51.044;3.746;2023-03-19T04:47:48;9.50;99.90
13328;DHT22;6733;51.044;3.746;2023-03-19T04:50:15;9.50;99.90
13328;DHT22;6733;51.044;3.746;2023-03-19T04:52:41;9.50;99.90
13328;DHT22;6733;51.044;3.746;2023-03-19T04:55:07;9.50;99.90
13328;DHT22;6733;51.044;3.746;2023-03-19T04:57:34;9.60;99.90
13328;DHT22;6733;51.044;3.746;2023-03-19T05:00:00;9.60;99.90
13328;DHT22;6733;51.044;3.746;2023-03-19T05:02:26;9.60;99.90
13328;DHT22;6733;51.044;3.746;2023-03-19T05:04:53;9.60;99.90
13328;DHT22;6733;51.044;3.746;2023-03-19T05:07:19;9.70;99.90
13328;DHT22;6733;51.044;3.746;2023-03-19T05:09:45;9.70;99.90
13328;DHT22;6733;51.044;3.746;2023-03-19T05:12:12;9.70;99.90
13328;DHT22;6733;51.044;3.746;2023-03-19T05:14:39;9.80;99.90
13328;DHT22;6733;51.044;3.746;2023-03-19T05:17:05;9.90;99.90
13328;DHT22;6733;51.044;3.746;2023-03-19T05:19:31;9.90;99.90
13328;DHT22;6733;51.044;3.746;2023-03-19T05:21:58;9.90;99.90
13328;DHT22;6733;51.044;3.746;2023-03-19T05:24:25;10.00;99.90
13328;DHT22;6733;51.044;3.746;2023-03-19T05:26:51;10.00;99.90
13328;DHT22;6733;51.044;3.746;2023-03-19T05:29:17;10.00;99.90
13328;DHT22;6733;51.044;3.746;2023-03-19T05:31:43;10.10;99.90
13328;DHT22;6733;51.044;3.746;2023-03-19T05:34:09;10.10;99.90
13328;DHT22;6733;51.044;3.746;2023-03-19T05:36:35;10.10;99.90
13328;DHT22;6733;51.044;3.746;2023-03-19T05:39:02;10.10;99.90
13328;DHT22;6733;51.044;3.746;2023-03-19T05:41:28;10.10;99.90
13328;DHT22;6733;51.044;3.746;2023-03-19T05:43:55;10.10;99.90
13328;DHT22;6733;51.044;3.746;2023-03-19T05:46:21;10.10;99.90
13328;DHT22;6733;51.044;3.746;2023-03-19T05:48:47;10.10;99.90
13328;DHT22;6733;51.044;3.746;2023-03-19T05:51:13;10.20;99.90
13328;DHT22;6733;51.044;3.746;2023-03-19T05:53:40;10.20;99.90
13328;DHT22;6733;51.044;3.746;2023-03-19T05:56:06;10.20;99.90
13328;DHT22;6733;51.044;3.746;2023-03-19T05:58:32;10.20;99.90
13328;DHT22;6733;51.044;3.746;2023-03-19T06:00:58;10.20;99.90
13328;DHT22;6733;51.044;3.746;2023-03-19T06:03:24;10.30;99.90
13328;DHT22;6733;51.044;3.746;2023-03-19T06:05:52;10.20;99.90
13328;DHT22;6733;51.044;3.746;2023-03-19T06:08:18;10.30;99.90
13328;DHT22;6733;51.044;3.746;2023-03-19T06:10:45;10.30;99.90
13328;DHT22;6733;51.044;3.746;2023-03-19T06:13:12;10.40;99.90
13328;DHT22;6733;51.044;3.746;2023-03-19T06:15:38;10.30;99.90
13328;DHT22;6733;51.044;3.746;2023-03-19T06:18:04;10.40;99.90
13328;DHT22;6733;51.044;3.746;2023-03-19T06:20:30;10.40;99.90
13328;DHT22;6733;51.044;3.746;2023-03-19T06:22:56;10.40;99.90
13328;DHT22;6733;51.044;3.746;2023-03-19T06:25:23;10.50;99.90
13328;DHT22;6733;51.044;3.746;2023-03-19T06:27:49;10.50;99.90
13328;DHT22;6733;51.044;3.746;2023-03-19T06:30:15;10.50;99.90
13328;DHT22;6733;51.044;3.746;2023-03-19T06:32:41;10.60;99.90
13328;DHT22;6733;51.044;3.746;2023-03-19T06:35:08;10.60;99.90
13328;DHT22;6733;51.044;3.746;2023-03-19T06:37:34;10.60;99.90
13328;DHT22;6733;51.044;3.746;2023-03-19T06:40:01;10.60;99.90
13328;DHT22;6733;51.044;3.746;2023-03-19T06:42:30;10.50;99.90
13328;DHT22;6733;51.044;3.746;2023-03-19T06:44:56;10.60;99.90
13328;DHT22;6733;51.044;3.746;2023-03-19T06:47:22;10.60;99.90
13328;DHT22;6733;51.044;3.746;2023-03-19T06:49:48;10.70;99.90
13328;DHT22;6733;51.044;3.746;2023-03-19T06:52:14;10.70;99.90
13328;DHT22;6733;51.044;3.746;2023-03-19T06:54:41;10.70;99.90
13328;DHT22;6733;51.044;3.746;2023-03-19T06:57:07;10.80;99.90
13328;DHT22;6733;51.044;3.746;2023-03-19T06:59:33;10.90;99.90
13328;DHT22;6733;51.044;3.746;2023-03-19T07:01:59;10.90;99.90
13328;DHT22;6733;51.044;3.746;2023-03-19T07:04:25;11.00;99.90
13328;DHT22;6733;51.044;3.746;2023-03-19T07:06:51;11.10;99.90
13328;DHT22;6733;51.044;3.746;2023-03-19T07:09:17;11.10;99.90
13328;DHT22;6733;51.044;3.746;2023-03-19T07:11:44;11.20;99.90
13328;DHT22;6733;51.044;3.746;2023-03-19T07:14:10;11.30;99.90
13328;DHT22;6733;51.044;3.746;2023-03-19T07:16:36;11.30;99.90
13328;DHT22;6733;51.044;3.746;2023-03-19T07:19:03;11.40;99.90
13328;DHT22;6733;51.044;3.746;2023-03-19T07:21:29;11.50;99.90
13328;DHT22;6733;51.044;3.746;2023-03-19T07:23:55;11.50;99.90
13328;DHT22;6733;51.044;3.746;2023-03-19T07:26:21;11.60;99.90
13328;DHT22;6733;51.044;3.746;2023-03-19T07:28:47;11.70;99.90
13328;DHT22;6733;51.044;3.746;2023-03-19T07:31:13;11.80;99.90
13328;DHT22;6733;51.044;3.746;2023-03-19T07:33:41;11.90;99.90
13328;DHT22;6733;51.044;3.746;2023-03-19T07:36:07;12.10;99.90
13328;DHT22;6733;51.044;3.746;2023-03-19T07:38:34;12.10;99.90
13328;DHT22;6733;51.044;3.746;2023-03-19T07:41:00;12.10;99.90
13328;DHT22;6733;51.044;3.746;2023-03-19T07:43:26;12.10;99.90
13328;DHT22;6733;51.044;3.746;2023-03-19T07:45:52;12.10;99.90
13328;DHT22;6733;51.044;3.746;2023-03-19T07:48:18;12.10;99.90
13328;DHT22;6733;51.044;3.746;2023-03-19T07:50:45;12.10;99.90
13328;DHT22;6733;51.044;3.746;2023-03-19T07:53:11;12.00;99.90
13328;DHT22;6733;51.044;3.746;2023-03-19T07:55:41;11.90;99.90
13328;DHT22;6733;51.044;3.746;2023-03-19T07:58:12;12.00;99.90
13328;DHT22;6733;51.044;3.746;2023-03-19T08:00:38;12.00;99.90
13328;DHT22;6733;51.044;3.746;2023-03-19T08:03:04;11.80;99.90
13328;DHT22;6733;51.044;3.746;2023-03-19T08:05:30;10.80;99.90
13328;DHT22;6733;51.044;3.746;2023-03-19T08:07:56;10.60;99.90
13328;DHT22;6733;51.044;3.746;2023-03-19T08:10:22;10.50;99.90
13328;DHT22;6733;51.044;3.746;2023-03-19T08:12:48;10.60;99.90
13328;DHT22;6733;51.044;3.746;2023-03-19T08:15:14;10.50;99.90
13328;DHT22;6733;51.044;3.746;2023-03-19T08:17:41;10.40;99.90
13328;DHT22;6733;51.044;3.746;2023-03-19T08:20:12;10.40;99.90
13328;DHT22;6733;51.044;3.746;2023-03-19T08:22:39;10.40;99.90
13328;DHT22;6733;51.044;3.746;2023-03-19T08:25:06;10.40;99.90
13328;DHT22;6733;51.044;3.746;2023-03-19T08:27:33;10.20;99.90
13328;DHT22;6733;51.044;3.746;2023-03-19T08:30:02;10.10;99.90
13328;DHT22;6733;51.044;3.746;2023-03-19T08:32:29;10.20;99.90
13328;DHT22;6733;51.044;3.746;2023-03-19T08:34:55;10.20;99.90
13328;DHT22;6733;51.044;3.746;2023-03-19T08:37:21;10.30;99.90
13328;DHT22;6733;51.044;3.746;2023-03-19T08:39:51;10.40;99.90
13328;DHT22;6733;51.044;3.746;2023-03-19T08:42:18;10.40;99.90
13328;DHT22;6733;51.044;3.746;2023-03-19T08:44:44;10.50;99.90
13328;DHT22;6733;51.044;3.746;2023-03-19T08:47:11;10.40;99.90
13328;DHT22;6733;51.044;3.746;2023-03-19T08:49:37;10.70;99.90
13328;DHT22;6733;51.044;3.746;2023-03-19T08:52:04;10.90;99.90
13328;DHT22;6733;51.044;3.746;2023-03-19T08:54:31;11.00;99.90
13328;DHT22;6733;51.044;3.746;2023-03-19T08:56:59;11.20;99.90
13328;DHT22;6733;51.044;3.746;2023-03-19T08:59:26;11.00;99.90
13328;DHT22;6733;51.044;3.746;2023-03-19T09:01:53;11.00;99.90
13328;DHT22;6733;51.044;3.746;2023-03-19T09:04:20;11.00;99.90
13328;DHT22;6733;51.044;3.746;2023-03-19T09:06:47;10.80;99.90
13328;DHT22;6733;51.044;3.746;2023-03-19T09:09:18;10.90;99.90
13328;DHT22;6733;51.044;3.746;2023-03-19T09:11:45;10.90;99.90
13328;DHT22;6733;51.044;3.746;2023-03-19T09:14:12;10.90;99.90
13328;DHT22;6733;51.044;3.746;2023-03-19T09:16:39;10.60;99.90
13328;DHT22;6733;51.044;3.746;2023-03-19T09:19:05;10.60;99.90
13328;DHT22;6733;51.044;3.746;2023-03-19T09:21:32;10.50;99.90
13328;DHT22;6733;51.044;3.746;2023-03-19T09:23:58;10.50;99.90
13328;DHT22;6733;51.044;3.746;2023-03-19T09:26:24;10.60;99.90
13328;DHT22;6733;51.044;3.746;2023-03-19T09:28:50;10.70;99.90
13328;DHT22;6733;51.044;3.746;2023-03-19T09:31:17;10.70;99.90
13328;DHT22;6733;51.044;3.746;2023-03-19T09:33:43;10.60;99.90
13328;DHT22;6733;51.044;3.746;2023-03-19T09:36:09;10.70;99.90
13328;DHT22;6733;51.044;3.746;2023-03-19T09:38:35;10.70;99.90
13328;DHT22;6733;51.044;3.746;2023-03-19T09:46:15;10.70;99.90
13328;DHT22;6733;51.044;3.746;2023-03-19T09:48:47;10.70;99.90
13328;DHT22;6733;51.044;3.746;2023-03-19T09:51:29;10.70;99.90
13328;DHT22;6733;51.044;3.746;2023-03-19T09:54:24;10.80;99.90
13328;DHT22;6733;51.044;3.746;2023-03-19T09:56:52;10.60;99.90
13328;DHT22;6733;51.044;3.746;2023-03-19T09:59:22;10.40;99.90
13328;DHT22;6733;51.044;3.746;2023-03-19T10:02:30;10.40;99.90
13328;DHT22;6733;51.044;3.746;2023-03-19T10:04:52;10.30;99.90
13328;DHT22;6733;51.044;3.746;2023-03-19T10:13:12;10.90;99.90
13328;DHT22;6733;51.044;3.746;2023-03-19T10:15:44;10.90;99.90
13328;DHT22;6733;51.044;3.746;2023-03-19T10:23:30;11.30;99.90
13328;DHT22;6733;51.044;3.746;2023-03-19T10:26:00;11.00;99.90
13328;DHT22;6733;51.044;3.746;2023-03-19T10:28:28;11.20;99.90
13328;DHT22;6733;51.044;3.746;2023-03-19T10:33:44;11.80;99.90
13328;DHT22;6733;51.044;3.746;2023-03-19T10:36:19;12.10;99.90
13328;DHT22;6733;51.044;3.746;2023-03-19T10:38:46;12.30;99.90
13328;DHT22;6733;51.044;3.746;2023-03-19T10:41:44;12.40;99.90
13328;DHT22;6733;51.044;3.746;2023-03-19T10:44:34;12.60;99.90
13328;DHT22;6733;51.044;3.746;2023-03-19T10:47:13;12.80;99.90
13328;DHT22;6733;51.044;3.746;2023-03-19T10:49:39;12.70;99.90
13328;DHT22;6733;51.044;3.746;2023-03-19T10:52:23;12.50;99.90
13328;DHT22;6733;51.044;3.746;2023-03-19T10:55:45;12.40;99.90
13328;DHT22;6733;51.044;3.746;2023-03-19T10:57:49;12.30;99.90
13328;DHT22;6733;51.044;3.746;2023-03-19T11:00:24;12.50;99.90
13328;DHT22;6733;51.044;3.746;2023-03-19T11:02:53;12.70;99.90
13328;DHT22;6733;51.044;3.746;2023-03-19T11:08:00;12.60;99.90
13328;DHT22;6733;51.044;3.746;2023-03-19T11:10:29;12.60;99.90
13328;DHT22;6733;51.044;3.746;2023-03-19T11:12:57;12.50;99.90
13328;DHT22;6733;51.044;3.746;2023-03-19T11:15:35;12.50;99.90
13328;DHT22;6733;51.044;3.746;2023-03-19T11:20:35;12.60;99.90
13328;DHT22;6733;51.044;3.746;2023-03-19T11:23:06;12.70;99.90
13328;DHT22;6733;51.044;3.746;2023-03-19T11:25:39;12.90;99.90
13328;DHT22;6733;51.044;3.746;2023-03-19T11:28:18;12.90;99.90
13328;DHT22;6733;51.044;3.746;2023-03-19T11:34:27;12.80;99.90
13328;DHT22;6733;51.044;3.746;2023-03-19T11:36:35;13.00;99.90
13328;DHT22;6733;51.044;3.746;2023-03-19T11:44:44;12.60;99.90
13328;DHT22;6733;51.044;3.746;2023-03-19T11:49:52;12.40;99.90
13328;DHT22;6733;51.044;3.746;2023-03-19T11:52:36;12.40;99.90
13328;DHT22;6733;51.044;3.746;2023-03-19T12:00:50;12.00;99.90
13328;DHT22;6733;51.044;3.746;2023-03-19T12:03:23;12.30;99.90
13328;DHT22;6733;51.044;3.746;2023-03-19T12:08:42;12.40;99.90
13328;DHT22;6733;51.044;3.746;2023-03-19T12:19:37;12.90;99.90
13328;DHT22;6733;51.044;3.746;2023-03-19T12:33:10;12.50;99.90
13328;DHT22;6733;51.044;3.746;2023-03-19T12:35:40;12.30;99.90
13328;DHT22;6733;51.044;3.746;2023-03-19T12:40:46;12.50;99.90
13328;DHT22;6733;51.044;3.746;2023-03-19T12:43:23;12.40;99.90
13328;DHT22;6733;51.044;3.746;2023-03-19T12:45:59;12.30;99.90
13328;DHT22;6733;51.044;3.746;2023-03-19T12:48:38;12.30;99.90
13328;DHT22;6733;51.044;3.746;2023-03-19T12:51:11;12.30;99.90
13328;DHT22;6733;51.044;3.746;2023-03-19T12:53:58;12.20;99.90
13328;DHT22;6733;51.044;3.746;2023-03-19T12:56:42;12.10;99.90
13328;DHT22;6733;51.044;3.746;2023-03-19T13:10:23;12.30;99.90
13328;DHT22;6733;51.044;3.746;2023-03-19T13:12:51;12.10;99.90
13328;DHT22;6733;51.044;3.746;2023-03-19T13:15:36;12.00;99.90
13328;DHT22;6733;51.044;3.746;2023-03-19T13:21:22;11.60;99.90
13328;DHT22;6733;51.044;3.746;2023-03-19T13:26:32;11.50;99.90
13328;DHT22;6733;51.044;3.746;2023-03-19T13:29:18;11.50;99.90
13328;DHT22;6733;51.044;3.746;2023-03-19T13:31:44;11.40;99.90
13328;DHT22;6733;51.044;3.746;2023-03-19T13:36:54;11.20;99.90
13328;DHT22;6733;51.044;3.746;2023-03-19T13:39:26;11.00;99.90
13328;DHT22;6733;51.044;3.746;2023-03-19T13:45:28;10.70;99.90
13328;DHT22;6733;51.044;3.746;2023-03-19T13:47:48;10.70;99.90
13328;DHT22;6733;51.044;3.746;2023-03-19T13:50:22;10.60;99.90
13328;DHT22;6733;51.044;3.746;2023-03-19T13:55:49;10.50;99.90
13328;DHT22;6733;51.044;3.746;2023-03-19T13:58:24;10.60;99.90
13328;DHT22;6733;51.044;3.746;2023-03-19T14:04:04;10.40;99.90
13328;DHT22;6733;51.044;3.746;2023-03-19T14:06:35;10.20;99.90
13328;DHT22;6733;51.044;3.746;2023-03-19T14:09:04;9.80;99.90
13328;DHT22;6733;51.044;3.746;2023-03-19T14:11:34;9.50;99.90
13328;DHT22;6733;51.044;3.746;2023-03-19T14:14:03;9.60;99.90
13328;DHT22;6733;51.044;3.746;2023-03-19T14:16:33;9.60;99.90
13328;DHT22;6733;51.044;3.746;2023-03-19T14:19:02;9.70;99.90
13328;DHT22;6733;51.044;3.746;2023-03-19T14:21:45;9.60;99.90
13328;DHT22;6733;51.044;3.746;2023-03-19T14:24:36;9.60;99.90
13328;DHT22;6733;51.044;3.746;2023-03-19T14:27:14;9.50;99.90
13328;DHT22;6733;51.044;3.746;2023-03-19T14:29:42;9.40;99.90
13328;DHT22;6733;51.044;3.746;2023-03-19T14:32:15;9.50;99.90
13328;DHT22;6733;51.044;3.746;2023-03-19T14:34:45;9.60;99.90
13328;DHT22;6733;51.044;3.746;2023-03-19T14:37:24;9.70;99.90
13328;DHT22;6733;51.044;3.746;2023-03-19T14:40:02;9.60;99.90
13328;DHT22;6733;51.044;3.746;2023-03-19T14:47:50;10.00;99.90
13328;DHT22;6733;51.044;3.746;2023-03-19T14:53:52;10.00;99.90
13328;DHT22;6733;51.044;3.746;2023-03-19T14:56:09;9.90;99.90
13328;DHT22;6733;51.044;3.746;2023-03-19T14:58:36;9.80;99.90
13328;DHT22;6733;51.044;3.746;2023-03-19T15:01:05;9.80;99.90
13328;DHT22;6733;51.044;3.746;2023-03-19T15:03:36;10.00;99.90
13328;DHT22;6733;51.044;3.746;2023-03-19T15:06:05;10.00;99.90
13328;DHT22;6733;51.044;3.746;2023-03-19T15:08:34;10.10;99.90
13328;DHT22;6733;51.044;3.746;2023-03-19T15:14:15;10.20;99.90
13328;DHT22;6733;51.044;3.746;2023-03-19T15:19:30;9.90;99.90
13328;DHT22;6733;51.044;3.746;2023-03-19T15:22:30;9.90;99.90
13328;DHT22;6733;51.044;3.746;2023-03-19T15:25:12;9.80;99.90
13328;DHT22;6733;51.044;3.746;2023-03-19T15:27:39;9.90;99.90
13328;DHT22;6733;51.044;3.746;2023-03-19T15:30:25;10.10;99.90
13328;DHT22;6733;51.044;3.746;2023-03-19T15:32:54;10.30;99.90
13328;DHT22;6733;51.044;3.746;2023-03-19T15:35:23;10.40;99.90
13328;DHT22;6733;51.044;3.746;2023-03-19T15:37:53;10.50;99.90
13328;DHT22;6733;51.044;3.746;2023-03-19T15:40:22;10.40;99.90
13328;DHT22;6733;51.044;3.746;2023-03-19T15:42:49;10.30;99.90
13328;DHT22;6733;51.044;3.746;2023-03-19T15:45:19;10.30;99.90
13328;DHT22;6733;51.044;3.746;2023-03-19T15:47:59;10.30;99.90
13328;DHT22;6733;51.044;3.746;2023-03-19T15:50:30;10.30;99.90
13328;DHT22;6733;51.044;3.746;2023-03-19T15:53:01;10.10;99.90
13328;DHT22;6733;51.044;3.746;2023-03-19T15:55:28;10.10;99.90
13328;DHT22;6733;51.044;3.746;2023-03-19T15:57:56;10.00;99.90
13328;DHT22;6733;51.044;3.746;2023-03-19T16:00:27;10.00;99.90
13328;DHT22;6733;51.044;3.746;2023-03-19T16:02:54;10.10;99.90
13328;DHT22;6733;51.044;3.746;2023-03-19T16:05:28;10.00;99.90
13328;DHT22;6733;51.044;3.746;2023-03-19T16:08:00;10.00;99.90
13328;DHT22;6733;51.044;3.746;2023-03-19T16:12:54;10.00;99.90
13328;DHT22;6733;51.044;3.746;2023-03-19T16:15:42;10.00;99.90
13328;DHT22;6733;51.044;3.746;2023-03-19T16:20:47;9.90;99.90
13328;DHT22;6733;51.044;3.746;2023-03-19T16:23:17;9.90;99.90
13328;DHT22;6733;51.044;3.746;2023-03-19T16:25:45;9.90;99.90
13328;DHT22;6733;51.044;3.746;2023-03-19T16:28:17;9.80;99.90
13328;DHT22;6733;51.044;3.746;2023-03-19T16:30:46;9.90;99.90
13328;DHT22;6733;51.044;3.746;2023-03-19T16:33:13;9.90;99.90
13328;DHT22;6733;51.044;3.746;2023-03-19T16:35:40;10.00;99.90
13328;DHT22;6733;51.044;3.746;2023-03-19T16:38:15;9.90;99.90
13328;DHT22;6733;51.044;3.746;2023-03-19T16:40:47;9.80;99.90
13328;DHT22;6733;51.044;3.746;2023-03-19T16:43:23;9.80;99.90
13328;DHT22;6733;51.044;3.746;2023-03-19T16:46:04;9.60;99.90
13328;DHT22;6733;51.044;3.746;2023-03-19T16:48:30;9.60;99.90
13328;DHT22;6733;51.044;3.746;2023-03-19T16:50:57;9.60;99.90
13328;DHT22;6733;51.044;3.746;2023-03-19T16:53:28;9.70;99.90
13328;DHT22;6733;51.044;3.746;2023-03-19T16:55:56;9.60;99.90
13328;DHT22;6733;51.044;3.746;2023-03-19T16:58:34;9.50;99.90
13328;DHT22;6733;51.044;3.746;2023-03-19T17:01:10;9.40;99.90
13328;DHT22;6733;51.044;3.746;2023-03-19T17:03:37;9.40;99.90
13328;DHT22;6733;51.044;3.746;2023-03-19T17:06:03;9.60;99.90
13328;DHT22;6733;51.044;3.746;2023-03-19T17:08:29;9.50;99.90
13328;DHT22;6733;51.044;3.746;2023-03-19T17:10:56;9.50;99.90
13328;DHT22;6733;51.044;3.746;2023-03-19T17:13:25;9.50;99.90
13328;DHT22;6733;51.044;3.746;2023-03-19T17:15:56;9.30;99.90
13328;DHT22;6733;51.044;3.746;2023-03-19T17:18:29;9.30;99.90
13328;DHT22;6733;51.044;3.746;2023-03-19T17:21:08;9.20;99.90
13328;DHT22;6733;51.044;3.746;2023-03-19T17:23:35;9.20;99.90
13328;DHT22;6733;51.044;3.746;2023-03-19T17:28:51;9.30;99.90
13328;DHT22;6733;51.044;3.746;2023-03-19T17:31:29;9.30;99.90
13328;DHT22;6733;51.044;3.746;2023-03-19T17:34:01;9.40;99.90
13328;DHT22;6733;51.044;3.746;2023-03-19T17:36:27;9.30;99.90
13328;DHT22;6733;51.044;3.746;2023-03-19T17:38:53;9.20;99.90
13328;DHT22;6733;51.044;3.746;2023-03-19T17:41:20;9.20;99.90
13328;DHT22;6733;51.044;3.746;2023-03-19T17:43:46;9.20;99.90
13328;DHT22;6733;51.044;3.746;2023-03-19T17:46:23;9.20;99.90
13328;DHT22;6733;51.044;3.746;2023-03-19T17:48:50;9.20;99.90
13328;DHT22;6733;51.044;3.746;2023-03-19T17:51:17;9.30;99.90
13328;DHT22;6733;51.044;3.746;2023-03-19T17:53:52;9.30;99.90
13328;DHT22;6733;51.044;3.746;2023-03-19T17:56:22;9.30;99.90
13328;DHT22;6733;51.044;3.746;2023-03-19T17:58:50;9.20;99.90
13328;DHT22;6733;51.044;3.746;2023-03-19T18:01:22;9.20;99.90
13328;DHT22;6733;51.044;3.746;2023-03-19T18:03:50;9.30;99.90
13328;DHT22;6733;51.044;3.746;2023-03-19T18:06:18;9.30;99.90